Time;durP1;ratioP1;P1;durP2;ratioP2;P2;SDS_P1;SDS_P2;PMS_P1;PMS_P2;Temp;Humidity;BMP_temperature;BMP_pressure;BME280_temperature;BME280_humidity;BME280_pressure;Samples;Min_cycle;Max_cycle;Signal;HPM_P1;HPM_P2
2023/10/06 00:00:41;;;;;;;10.98;6.95;;;;;;;;;;5033899;28;20072;-57
2023/10/06 00:03:11;;;;;;;10.20;6.57;;;;;;;;;;5032637;28;20442;-57
2023/10/06 00:05:49;;;;;;;10.98;7.00;;;;;;;;;;5037228;28;20166;-58
2023/10/06 00:08:32;;;;;;;10.73;7.93;;;;;;;;;;5027946;28;20034;-56
2023/10/06 00:11:10;;;;;;;15.30;9.07;;;;;;;;;;5034907;28;20037;-57
2023/10/06 00:13:37;;;;;;;12.63;7.60;;;;;;;;;;5031726;28;20029;-57
2023/10/06 00:16:07;;;;;;;12.50;6.85;;;;;;;;;;5037976;28;20037;-57
2023/10/06 00:18:36;;;;;;;10.35;6.15;;;;;;;;;;5044718;28;20461;-57
2023/10/06 00:21:14;;;;;;;8.05;4.95;;;;;;;;;;5034121;28;20120;-56
2023/10/06 00:23:43;;;;;;;9.52;5.47;;;;;;;;;;5030961;28;20048;-56
2023/10/06 00:26:16;;;;;;;7.05;4.55;;;;;;;;;;5033218;28;20033;-56
2023/10/06 00:28:44;;;;;;;9.40;4.65;;;;;;;;;;5041434;28;20111;-56
2023/10/06 00:31:12;;;;;;;8.48;5.03;;;;;;;;;;5038709;28;20065;-56
2023/10/06 00:33:41;;;;;;;7.75;4.72;;;;;;;;;;5035304;28;20527;-56
2023/10/06 00:36:13;;;;;;;10.05;4.97;;;;;;;;;;5031239;28;20088;-56
2023/10/06 00:38:40;;;;;;;7.57;4.38;;;;;;;;;;5036216;28;20077;-56
2023/10/06 00:41:14;;;;;;;7.07;4.80;;;;;;;;;;5039503;28;20042;-56
2023/10/06 00:43:43;;;;;;;7.20;4.65;;;;;;;;;;5028234;28;20041;-56
2023/10/06 00:46:10;;;;;;;8.82;4.93;;;;;;;;;;5039698;28;20044;-57
2023/10/06 00:48:38;;;;;;;9.38;5.00;;;;;;;;;;5038017;28;20044;-56
2023/10/06 00:51:05;;;;;;;8.23;4.35;;;;;;;;;;5036088;28;20033;-56
2023/10/06 00:53:34;;;;;;;8.23;4.53;;;;;;;;;;5042443;28;20136;-56
2023/10/06 00:56:10;;;;;;;9.05;4.47;;;;;;;;;;5000936;28;20120;-56
2023/10/06 00:58:39;;;;;;;8.32;4.45;;;;;;;;;;5032542;28;20032;-56
2023/10/06 01:01:06;;;;;;;7.97;4.45;;;;;;;;;;5050578;28;20040;-56
2023/10/06 01:03:39;;;;;;;7.43;4.78;;;;;;;;;;5028160;28;20037;-56
2023/10/06 01:06:15;;;;;;;7.63;4.18;;;;;;;;;;5037468;28;20431;-57
2023/10/06 01:08:49;;;;;;;5.78;4.40;;;;;;;;;;5022517;28;20056;-55
2023/10/06 01:11:17;;;;;;;13.65;5.18;;;;;;;;;;5029061;28;20040;-56
2023/10/06 01:16:34;;;;;;;8.02;4.70;;;;;;;;;;4943764;29;20086;-57
2023/10/06 01:19:14;;;;;;;12.63;4.57;;;;;;;;;;4910958;29;20050;-57
2023/10/06 01:21:40;;;;;;;9.02;4.60;;;;;;;;;;4946205;29;20042;-56
2023/10/06 01:24:12;;;;;;;9.40;4.43;;;;;;;;;;4944097;29;20047;-56
2023/10/06 01:26:41;;;;;;;;;;;;;;;;;;4947819;28;20078;-56
2023/10/06 01:29:13;;;;;;;9.73;4.63;;;;;;;;;;4942983;29;20390;-56
2023/10/06 01:31:42;;;;;;;9.75;4.57;;;;;;;;;;4945899;28;20058;-56
2023/10/06 01:34:12;;;;;;;6.72;4.22;;;;;;;;;;4943315;29;20050;-56
2023/10/06 01:36:39;;;;;;;7.18;4.78;;;;;;;;;;4949085;29;20030;-56
2023/10/06 01:39:05;;;;;;;9.30;3.97;;;;;;;;;;4946117;28;20035;-56
2023/10/06 01:41:34;;;;;;;13.55;4.40;;;;;;;;;;4950400;29;20402;-56
2023/10/06 01:44:01;;;;;;;7.85;4.10;;;;;;;;;;4945820;29;20177;-56
2023/10/06 01:46:28;;;;;;;8.55;4.45;;;;;;;;;;4950782;28;20090;-56
2023/10/06 01:48:55;;;;;;;9.70;4.00;;;;;;;;;;4941389;28;20452;-56
2023/10/06 01:51:22;;;;;;;9.15;5.05;;;;;;;;;;4938348;29;20102;-56
2023/10/06 01:53:50;;;;;;;9.90;4.05;;;;;;;;;;4989468;28;20049;-57
2023/10/06 01:56:21;;;;;;;6.43;3.90;;;;;;;;;;4983012;28;20042;-58
2023/10/06 01:58:51;;;;;;;8.73;4.38;;;;;;;;;;4986274;28;20095;-56
2023/10/06 02:01:19;;;;;;;9.05;4.63;;;;;;;;;;4986907;28;20061;-56
2023/10/06 02:03:45;;;;;;;8.40;4.72;;;;;;;;;;4984820;28;20034;-56
2023/10/06 02:06:13;;;;;;;9.13;4.47;;;;;;;;;;4985102;28;20045;-56
2023/10/06 02:08:40;;;;;;;6.60;3.60;;;;;;;;;;4974446;28;20041;-57
2023/10/06 02:11:08;;;;;;;7.82;4.25;;;;;;;;;;4982901;28;20053;-58
2023/10/06 02:13:35;;;;;;;10.85;4.70;;;;;;;;;;4971210;28;20045;-58
2023/10/06 02:16:03;;;;;;;7.00;3.95;;;;;;;;;;4977325;28;20038;-60
2023/10/06 02:18:36;;;;;;;11.85;4.22;;;;;;;;;;4988823;28;20528;-58
2023/10/06 02:21:10;;;;;;;10.02;4.05;;;;;;;;;;4979978;28;20057;-59
2023/10/06 02:23:37;;;;;;;7.47;3.97;;;;;;;;;;4967938;28;20034;-59
2023/10/06 02:26:07;;;;;;;6.78;3.78;;;;;;;;;;4953145;28;20054;-58
2023/10/06 02:28:33;;;;;;;7.65;4.35;;;;;;;;;;5000051;28;20042;-58
2023/10/06 02:31:05;;;;;;;10.40;4.40;;;;;;;;;;4979573;28;20092;-58
2023/10/06 02:33:39;;;;;;;9.00;3.75;;;;;;;;;;4960504;28;20043;-59
2023/10/06 02:36:23;;;;;;;6.72;4.72;;;;;;;;;;4987728;28;20510;-59
2023/10/06 02:38:50;;;;;;;7.63;3.95;;;;;;;;;;4962705;28;20089;-60
2023/10/06 02:41:21;;;;;;;7.07;4.05;;;;;;;;;;4977585;28;20498;-60
2023/10/06 02:43:52;;;;;;;7.97;4.55;;;;;;;;;;4970241;28;20047;-59
2023/10/06 02:46:23;;;;;;;10.93;4.43;;;;;;;;;;4965533;28;20892;-59
2023/10/06 02:48:50;;;;;;;6.65;4.03;;;;;;;;;;4911145;29;20043;-59
2023/10/06 02:51:20;;;;;;;9.98;4.97;;;;;;;;;;4926717;29;20032;-59
2023/10/06 02:53:50;;;;;;;7.03;4.80;;;;;;;;;;4914447;29;20150;-59
2023/10/06 02:56:21;;;;;;;8.80;4.35;;;;;;;;;;4908045;28;20034;-59
2023/10/06 02:58:50;;;;;;;9.30;4.07;;;;;;;;;;4918047;29;20459;-60
2023/10/06 03:01:17;;;;;;;7.72;4.05;;;;;;;;;;4955355;28;20046;-60
2023/10/06 03:03:43;;;;;;;9.88;4.95;;;;;;;;;;4986940;28;20042;-60
2023/10/06 03:06:09;;;;;;;9.70;4.53;;;;;;;;;;4974521;28;20041;-59
2023/10/06 03:08:36;;;;;;;8.38;4.35;;;;;;;;;;4972842;28;20061;-59
2023/10/06 03:11:03;;;;;;;6.93;4.22;;;;;;;;;;4971292;28;20101;-60
2023/10/06 03:13:35;;;;;;;11.77;4.82;;;;;;;;;;4971993;28;20050;-60
2023/10/06 03:16:02;;;;;;;8.45;3.90;;;;;;;;;;4972235;28;20038;-60
2023/10/06 03:18:30;;;;;;;7.20;4.63;;;;;;;;;;4939433;28;20411;-59
2023/10/06 03:21:14;;;;;;;10.43;4.57;;;;;;;;;;4997074;28;20485;-60
2023/10/06 03:23:44;;;;;;;13.07;5.25;;;;;;;;;;5007242;28;20048;-59
2023/10/06 03:28:49;;;;;;;11.02;4.70;;;;;;;;;;5029682;28;20049;-59
2023/10/06 03:33:45;;;;;;;6.82;3.90;;;;;;;;;;5039259;28;20115;-60
2023/10/06 03:36:16;;;;;;;8.80;3.90;;;;;;;;;;5033502;28;20041;-60
2023/10/06 03:38:57;;;;;;;8.38;3.92;;;;;;;;;;4988041;28;20054;-61
2023/10/06 03:41:32;;;;;;;16.80;4.65;;;;;;;;;;4982004;28;20046;-56
2023/10/06 03:44:03;;;;;;;11.02;4.60;;;;;;;;;;4953758;28;20550;-56
2023/10/06 03:46:36;;;;;;;11.10;4.78;;;;;;;;;;4948347;28;20071;-56
2023/10/06 03:49:07;;;;;;;10.65;4.30;;;;;;;;;;4954646;28;20043;-55
2023/10/06 03:51:38;;;;;;;13.35;4.18;;;;;;;;;;4953643;28;20044;-55
2023/10/06 03:54:05;;;;;;;11.15;4.13;;;;;;;;;;4953716;28;20111;-56
2023/10/06 03:56:32;;;;;;;12.20;4.78;;;;;;;;;;4954120;28;20446;-55
2023/10/06 03:59:02;;;;;;;10.30;4.85;;;;;;;;;;4953529;28;20043;-56
2023/10/06 04:01:31;;;;;;;6.15;4.47;;;;;;;;;;4947218;28;20055;-56
2023/10/06 04:04:01;;;;;;;6.88;4.30;;;;;;;;;;4953146;28;20043;-56
2023/10/06 04:06:27;;;;;;;;;;;;;;;;;;4954107;28;20131;-56
2023/10/06 04:08:53;;;;;;;;;;;;;;;;;;4965533;28;20008;-56
2023/10/06 04:11:18;;;;;;;;;;;;;;;;;;4996334;28;20081;-56
2023/10/06 04:13:45;;;;;;;;;;;;;;;;;;5037489;28;19905;-56
2023/10/06 04:16:14;;;;;;;;;;;;;;;;;;5042446;28;20000;-56
2023/10/06 04:18:40;;;;;;;;;;;;;;;;;;5040121;28;19912;-55
2023/10/06 04:21:11;;;;;;;;;;;;;;;;;;5037830;28;20008;-55
2023/10/06 04:23:41;;;;;;;;;;;;;;;;;;5032197;28;19909;-56
2023/10/06 04:26:07;;;;;;;;;;;;;;;;;;5032957;28;20467;-56
2023/10/06 04:28:33;;;;;;;;;;;;;;;;;;5038986;28;20011;-56
2023/10/06 04:31:00;;;;;;;;;;;;;;;;;;5034924;28;19994;-56
2023/10/06 04:33:28;;;;;;;;;;;;;;;;;;5028898;28;19916;-56
2023/10/06 04:36:07;;;;;;;;;;;;;;;;;;5032791;28;19905;-56
2023/10/06 04:38:36;;;;;;;;;;;;;;;;;;5035432;28;19913;-56
2023/10/06 04:41:02;;;;;;;;;;;;;;;;;;5033612;28;20376;-56
2023/10/06 04:43:28;;;;;;;;;;;;;;;;;;5041326;28;19905;-55
2023/10/06 04:45:55;;;;;;;;;;;15.10;99.90;;;;;;5035994;28;20274;-57
2023/10/06 04:48:21;;;;;;;;;;;15.10;99.90;;;;;;5016204;28;19995;-57
2023/10/06 04:50:50;;;;;;;;;;;15.10;99.90;;;;;;5011891;28;20334;-57
2023/10/06 04:53:16;;;;;;;;;;;;;;;;;;5029368;28;19948;-56
2023/10/06 04:55:42;;;;;;;;;;;;;;;;;;5035230;28;19913;-56
2023/10/06 04:58:08;;;;;;;;;;;;;;;;;;5030987;28;19916;-56
2023/10/06 05:00:34;;;;;;;;;;;15.50;99.90;;;;;;5038439;28;19917;-56
2023/10/06 05:03:04;;;;;;;;;;;15.50;99.90;;;;;;5036517;28;19974;-56
2023/10/06 05:05:33;;;;;;;;;;;15.50;99.90;;;;;;5033183;28;19913;-56
2023/10/06 05:07:59;;;;;;;;;;;15.50;99.90;;;;;;5032203;28;19909;-57
2023/10/06 05:10:30;;;;;;;;;;;15.30;99.90;;;;;;5034086;28;19916;-56
2023/10/06 05:12:55;;;;;;;;;;;15.10;99.90;;;;;;5020086;28;19904;-56
2023/10/06 05:15:24;;;;;;;;;;;15.20;99.90;;;;;;5041964;28;19909;-56
2023/10/06 05:17:56;;;;;;;;;;;15.20;99.90;;;;;;5039318;28;19908;-56
2023/10/06 05:20:22;;;;;;;;;;;;;;;;;;4990469;28;19921;-56
2023/10/06 05:22:48;;;;;;;;;;;;;;;;;;5031429;28;19919;-56
2023/10/06 05:25:15;;;;;;;;;;;;;;;;;;5030705;28;19943;-56
2023/10/06 05:27:42;;;;;;;;;;;;;;;;;;5034929;28;19909;-57
2023/10/06 05:30:08;;;;;;;;;;;;;;;;;;5042171;28;19905;-57
2023/10/06 05:32:35;;;;;;;;;;;;;;;;;;5022253;28;19956;-58
2023/10/06 05:35:01;;;;;;;;;;;;;;;;;;5038591;28;20319;-56
2023/10/06 05:37:27;;;;;;;;;;;;;;;;;;4988984;28;19932;-57
2023/10/06 05:39:53;;;;;;;;;;;;;;;;;;5026806;28;19909;-57
2023/10/06 05:42:19;;;;;;;;;;;;;;;;;;5037157;28;19955;-57
2023/10/06 05:44:45;;;;;;;;;;;;;;;;;;5030676;28;19910;-57
2023/10/06 05:47:11;;;;;;;;;;;;;;;;;;5022655;28;20345;-57
2023/10/06 05:49:38;;;;;;;;;;;;;;;;;;5040651;28;19905;-57
2023/10/06 05:52:04;;;;;;;;;;;;;;;;;;5034516;28;19924;-57
2023/10/06 05:54:31;;;;;;;;;;;;;;;;;;5033585;28;19908;-57
2023/10/06 05:56:57;;;;;;;;;;;;;;;;;;5032702;28;19916;-57
2023/10/06 05:59:25;;;;;;;;;;;15.20;99.90;;;;;;5033461;28;20480;-57
2023/10/06 06:02:00;;;;;;;;;;;;;;;;;;5011848;28;20307;-57
2023/10/06 06:04:27;;;;;;;;;;;;;;;;;;5026880;28;19992;-58
2023/10/06 06:06:56;;;;;;;;;;;15.40;99.90;;;;;;5033183;28;19916;-57
2023/10/06 06:09:22;;;;;;;;;;;15.30;99.90;;;;;;5036957;28;19913;-57
2023/10/06 06:11:48;;;;;;;;;;;15.20;99.90;;;;;;5034734;28;20459;-57
2023/10/06 06:14:14;;;;;;;;;;;15.10;99.90;;;;;;5038806;28;19909;-57
2023/10/06 06:16:44;;;;;;;;;;;15.20;99.90;;;;;;5041598;28;19913;-57
2023/10/06 06:19:11;;;;;;;;;;;15.20;99.90;;;;;;5020082;28;20007;-57
2023/10/06 06:21:38;;;;;;;;;;;15.40;99.90;;;;;;5037488;28;19948;-57
2023/10/06 06:24:06;;;;;;;;;;;15.40;99.90;;;;;;5035935;28;20383;-57
2023/10/06 06:26:32;;;;;;;;;;;15.40;99.90;;;;;;4994786;28;19913;-57
2023/10/06 06:29:03;;;;;;;;;;;15.50;99.90;;;;;;5019540;28;19924;-57
2023/10/06 06:31:32;;;;;;;;;;;15.70;99.90;;;;;;5016312;28;19917;-57
2023/10/06 06:34:04;;;;;;;;;;;15.60;99.90;;;;;;5027600;28;19952;-58
2023/10/06 06:36:31;;;;;;;;;;;15.60;99.90;;;;;;5034038;28;20275;-57
2023/10/06 06:38:58;;;;;;;;;;;15.80;99.90;;;;;;5038496;28;19912;-57
2023/10/06 06:41:24;;;;;;;;;;;15.80;99.90;;;;;;5026201;28;19916;-57
2023/10/06 06:43:54;;;;;;;;;;;15.90;99.90;;;;;;5025921;28;19909;-57
2023/10/06 06:46:20;;;;;;;;;;;16.00;99.90;;;;;;5033009;28;20353;-57
2023/10/06 06:48:46;;;;;;;;;;;16.10;99.90;;;;;;4982916;28;19909;-57
2023/10/06 06:51:12;;;;;;;;;;;16.20;99.90;;;;;;5034144;28;19968;-57
2023/10/06 06:53:39;;;;;;;;;;;16.30;99.90;;;;;;5039729;28;19924;-54
2023/10/06 06:56:05;;;;;;;;;;;16.30;99.90;;;;;;5009414;28;19937;-56
2023/10/06 06:58:32;;;;;;;;;;;16.30;99.90;;;;;;5030993;28;20344;-57
2023/10/06 07:00:58;;;;;;;;;;;16.40;99.90;;;;;;5032788;28;19917;-58
2023/10/06 07:03:24;;;;;;;;;;;16.50;99.90;;;;;;5042351;28;19905;-56
2023/10/06 07:05:50;;;;;;;;;;;16.50;99.90;;;;;;5038968;28;19952;-57
2023/10/06 07:08:16;;;;;;;;;;;16.70;99.90;;;;;;5034593;28;19917;-56
2023/10/06 07:10:46;;;;;;;;;;;16.80;99.90;;;;;;5032183;28;19919;-57
2023/10/06 07:13:12;;;;;;;;;;;16.80;99.90;;;;;;5032509;28;19912;-55
2023/10/06 07:15:37;;;;;;;;;;;16.90;99.90;;;;;;5031632;28;20012;-57
2023/10/06 07:18:03;;;;;;;;;;;17.10;99.90;;;;;;5037891;28;19906;-57
2023/10/06 07:20:30;;;;;;;;;;;17.20;99.90;;;;;;5032430;28;19980;-56
2023/10/06 07:22:56;;;;;;;;;;;17.20;99.90;;;;;;5030235;28;19979;-55
2023/10/06 07:25:24;;;;;;;;;;;17.30;99.90;;;;;;5022461;28;19919;-56
2023/10/06 07:27:50;;;;;;;;;;;17.20;99.90;;;;;;5045067;28;19905;-55
2023/10/06 07:30:16;;;;;;;;;;;17.10;99.90;;;;;;5032732;28;19909;-58
2023/10/06 07:32:43;;;;;;;;;;;17.00;99.90;;;;;;5008947;28;19917;-57
2023/10/06 07:35:09;;;;;;;;;;;17.10;99.90;;;;;;5018457;28;19910;-57
2023/10/06 07:37:37;;;;;;;;;;;17.10;99.90;;;;;;5034667;28;19910;-55
2023/10/06 07:40:05;;;;;;;;;;;17.20;99.90;;;;;;5034545;28;20309;-57
2023/10/06 07:42:31;;;;;;;;;;;17.30;99.90;;;;;;5038850;28;20370;-59
2023/10/06 07:44:57;;;;;;;;;;;17.40;99.90;;;;;;5031333;28;19964;-58
2023/10/06 07:47:24;;;;;;;;;;;17.40;99.90;;;;;;5044175;28;20339;-60
2023/10/06 07:49:52;;;;;;;;;;;17.40;99.90;;;;;;5029856;28;19917;-62
2023/10/06 07:52:18;;;;;;;;;;;17.40;99.90;;;;;;5037510;28;20407;-57
2023/10/06 07:54:43;;;;;;;;;;;17.40;99.90;;;;;;5025299;28;19951;-57
2023/10/06 07:57:12;;;;;;;;;;;17.50;99.90;;;;;;5041717;28;19908;-60
2023/10/06 07:59:39;;;;;;;;;;;17.50;99.90;;;;;;5039537;28;20443;-61
2023/10/06 08:02:05;;;;;;;;;;;17.50;99.90;;;;;;5032201;28;20288;-58
2023/10/06 08:04:32;;;;;;;;;;;17.50;99.90;;;;;;5042190;28;20032;-60
2023/10/06 08:07:00;;;;;;;;;;;17.60;99.90;;;;;;5031096;28;19906;-60
2023/10/06 08:09:26;;;;;;;;;;;17.70;99.90;;;;;;5024770;28;19908;-58
2023/10/06 08:11:54;;;;;;;;;;;17.60;99.90;;;;;;5031574;28;20275;-58
2023/10/06 08:14:20;;;;;;;;;;;17.60;99.90;;;;;;5037996;28;19971;-60
2023/10/06 08:16:49;;;;;;;;;;;17.70;99.90;;;;;;5036265;28;19913;-58
2023/10/06 08:19:15;;;;;;;;;;;17.80;99.90;;;;;;5032825;28;19913;-57
2023/10/06 08:21:41;;;;;;;;;;;17.80;99.90;;;;;;5045208;28;19927;-58
2023/10/06 08:24:07;;;;;;;;;;;17.70;99.90;;;;;;5045849;28;19908;-57
2023/10/06 08:26:34;;;;;;;;;;;17.70;99.90;;;;;;5045484;28;20414;-57
2023/10/06 08:28:59;;;;;;;;;;;17.80;99.90;;;;;;5048992;28;19998;-55
2023/10/06 08:31:26;;;;;;;;;;;17.90;99.90;;;;;;5036152;28;20051;-58
2023/10/06 08:33:52;;;;;;;27.55;17.15;;;18.10;99.90;;;;;;5040106;28;20402;-58
2023/10/06 08:36:18;;;;;;;21.75;9.05;;;18.20;99.90;;;;;;5042196;28;20055;-56
2023/10/06 08:38:46;;;;;;;25.40;6.15;;;18.40;99.90;;;;;;5042976;28;20021;-58
2023/10/06 08:41:12;;;;;;;9.13;3.97;;;18.40;99.90;;;;;;5043891;28;20036;-55
2023/10/06 08:43:38;;;;;;;10.13;4.20;;;18.40;99.90;;;;;;5042324;28;20112;-58
2023/10/06 08:46:06;;;;;;;10.02;4.05;;;18.30;99.90;;;;;;5042112;28;20427;-58
2023/10/06 08:48:35;;;;;;;10.73;3.78;;;18.50;99.90;;;;;;5042844;28;20021;-58
2023/10/06 08:51:07;;;;;;;16.92;4.55;;;18.50;99.90;;;;;;5042769;28;20457;-58
2023/10/06 08:53:38;;;;;;;10.10;4.00;;;18.50;99.90;;;;;;5038697;28;20049;-58
2023/10/06 08:56:05;;;;;;;10.88;3.85;;;18.80;99.90;;;;;;5018368;28;20488;-58
2023/10/06 08:58:30;;;;;;;9.25;4.22;;;18.90;99.90;;;;;;5033590;28;20433;-58
2023/10/06 09:00:57;;;;;;;11.38;3.90;;;18.80;99.90;;;;;;5033403;28;20125;-56
2023/10/06 09:03:23;;;;;;;7.80;3.75;;;19.10;99.90;;;;;;5014373;28;20030;-57
2023/10/06 09:05:50;;;;;;;11.38;4.53;;;;;;;;;;5015693;28;20068;-58
2023/10/06 09:08:17;;;;;;;23.52;8.40;;;19.30;99.90;;;;;;5032974;28;20040;-56
2023/10/06 09:10:50;;;;;;;9.52;3.65;;;19.20;99.90;;;;;;5033086;28;20477;-59
2023/10/06 09:13:18;;;;;;;6.50;3.80;;;19.30;99.90;;;;;;5033470;28;20460;-59
2023/10/06 09:16:09;;;;;;;12.00;4.03;;;19.60;99.90;;;;;;5033223;28;20029;-58
2023/10/06 09:18:38;;;;;;;8.45;3.70;;;19.80;99.90;;;;;;5033196;28;20052;-61
2023/10/06 09:21:12;;;;;;;13.18;4.68;;;;;;;;;;5033046;28;20432;-58
2023/10/06 09:23:41;;;;;;;6.63;3.45;;;;;;;;;;5033056;28;20029;-58
2023/10/06 09:26:09;;;;;;;14.25;5.00;;;20.10;99.90;;;;;;4997026;28;20043;-57
2023/10/06 09:28:36;;;;;;;5.82;3.90;;;;;;;;;;5033016;28;20121;-58
2023/10/06 09:31:05;;;;;;;12.10;4.25;;;20.40;99.90;;;;;;5033070;28;20044;-59
2023/10/06 09:33:37;;;;;;;17.95;4.72;;;;;;;;;;5032742;28;20428;-58
2023/10/06 09:36:21;;;;;;;8.35;4.13;;;;;;;;;;5032322;28;20021;-59
2023/10/06 09:38:48;;;;;;;9.52;4.18;;;;;;;;;;5032741;28;20022;-59
2023/10/06 09:41:28;;;;;;;15.80;4.20;;;;;;;;;;5032440;28;20103;-57
2023/10/06 09:43:57;;;;;;;7.88;3.90;;;22.40;99.90;;;;;;5032516;28;20499;-57
2023/10/06 09:46:26;;;;;;;9.73;3.38;;;22.30;99.90;;;;;;5032912;28;20473;-60
2023/10/06 09:48:53;;;;;;;6.50;3.40;;;22.60;99.90;;;;;;5032640;28;20025;-57
2023/10/06 09:51:23;;;;;;;16.27;5.20;;;22.90;99.90;;;;;;5032646;28;20064;-56
2023/10/06 09:53:50;;;;;;;8.05;4.60;;;22.80;99.90;;;;;;4999784;28;20060;-59
2023/10/06 09:56:17;;;;;;;6.95;3.50;;;;;;;;;;5032298;28;20024;-55
2023/10/06 09:58:51;;;;;;;5.25;3.47;;;23.60;99.80;;;;;;5032534;28;20423;-58
2023/10/06 10:01:20;;;;;;;8.45;4.00;;;23.60;99.30;;;;;;5032358;28;20037;-57
2023/10/06 10:03:47;;;;;;;8.85;4.20;;;24.00;99.10;;;;;;5032368;28;20061;-57
2023/10/06 10:06:16;;;;;;;6.35;3.80;;;23.60;98.90;;;;;;5032304;28;20021;-56
2023/10/06 10:08:42;;;;;;;8.77;3.78;;;;;;;;;;5032140;28;20033;-58
2023/10/06 10:11:14;;;;;;;7.30;3.65;;;;;;;;;;5032247;28;20104;-59
2023/10/06 10:13:52;;;;;;;10.75;3.40;;;;;;;;;;5032452;28;20028;-56
2023/10/06 10:16:29;;;;;;;5.25;3.03;;;;;;;;;;5032055;28;20047;-57
2023/10/06 10:19:07;;;;;;;6.47;3.28;;;;;;;;;;5032516;28;20052;-58
2023/10/06 10:21:34;;;;;;;6.97;3.70;;;;;;;;;;5037158;28;20073;-56
2023/10/06 10:24:05;;;;;;;6.30;3.65;;;;;;;;;;5041505;28;20017;-59
2023/10/06 10:26:34;;;;;;;6.32;3.35;;;;;;;;;;5039259;28;20032;-59
2023/10/06 10:29:12;;;;;;;6.00;3.75;;;;;;;;;;5040678;28;20037;-55
2023/10/06 10:31:38;;;;;;;9.07;4.38;;;27.20;99.90;;;;;;5030923;28;20041;-57
2023/10/06 10:34:07;;;;;;;5.35;3.60;;;27.00;99.90;;;;;;5036204;28;20056;-57
2023/10/06 10:36:34;;;;;;;12.57;4.20;;;27.20;96.10;;;;;;5037387;28;20083;-61
2023/10/06 10:39:09;;;;;;;8.80;4.55;;;27.00;96.90;;;;;;5041343;28;20029;-57
2023/10/06 10:41:36;;;;;;;6.03;3.08;;;;;;;;;;5033479;28;20033;-57
2023/10/06 10:44:06;;;;;;;7.68;3.92;;;;;;;;;;5031755;28;20053;-55
2023/10/06 10:46:48;;;;;;;4.60;2.80;;;;;;;;;;5031617;28;20037;-55
2023/10/06 10:49:19;;;;;;;8.13;4.22;;;26.70;99.90;;;;;;5012934;28;20041;-56
2023/10/06 10:51:53;;;;;;;9.20;4.40;;;27.00;99.90;;;;;;5031682;28;20113;-56
2023/10/06 10:54:21;;;;;;;7.55;3.97;;;;;;;;;;5031528;28;20049;-57
2023/10/06 10:56:51;;;;;;;11.60;4.85;;;27.70;94.50;;;;;;5031890;28;20492;-55
2023/10/06 10:59:17;;;;;;;9.18;3.65;;;;;;;;;;5031718;28;20059;-56
2023/10/06 11:01:44;;;;;;;8.98;4.47;;;28.10;97.70;;;;;;5031546;28;20038;-57
2023/10/06 11:04:18;;;;;;;10.48;4.10;;;;;;;;;;5031102;28;20071;-57
2023/10/06 11:06:44;;;;;;;9.23;5.40;;;;;;;;;;5031041;28;20025;-58
2023/10/06 11:09:26;;;;;;;10.88;5.95;;;;;;;;;;5031540;28;20026;-58
2023/10/06 11:11:59;;;;;;;9.68;6.28;;;;;;;;;;5031375;28;20435;-57
2023/10/06 11:14:26;;;;;;;12.98;6.22;;;;;;;;;;5031792;28;20389;-57
2023/10/06 11:17:03;;;;;;;11.65;5.80;;;28.80;95.90;;;;;;5030299;28;20079;-57
2023/10/06 11:19:33;;;;;;;11.82;6.30;;;28.30;95.40;;;;;;5031701;28;20155;-56
2023/10/06 11:22:28;;;;;;;11.10;6.70;;;28.20;93.90;;;;;;5031361;28;20116;-56
2023/10/06 11:24:57;;;;;;;11.50;6.13;;;;;;;;;;4950921;29;20438;-57
2023/10/06 11:27:23;;;;;;;13.13;5.70;;;;;;;;;;4951163;29;20118;-56
2023/10/06 11:29:52;;;;;;;9.02;5.72;;;;;;;;;;4950953;29;20031;-57
2023/10/06 11:32:18;;;;;;;9.52;6.13;;;;;;;;;;4950993;29;20541;-56
2023/10/06 11:34:45;;;;;;;11.88;6.03;;;27.50;99.90;;;;;;4950964;29;20535;-57
2023/10/06 11:37:12;;;;;;;7.72;4.50;;;27.20;99.90;;;;;;4951115;29;20027;-57
2023/10/06 11:39:38;;;;;;;10.75;4.97;;;27.40;99.90;;;;;;4935306;29;20468;-55
2023/10/06 11:42:25;;;;;;;8.88;5.00;;;27.20;99.90;;;;;;4950943;29;20054;-56
2023/10/06 11:44:54;;;;;;;10.45;4.50;;;27.20;99.90;;;;;;4950705;29;20029;-57
2023/10/06 11:47:24;;;;;;;9.02;3.70;;;27.60;99.40;;;;;;4950964;28;20494;-58
2023/10/06 11:49:54;;;;;;;9.57;3.47;;;;;;;;;;4953527;29;20035;-58
2023/10/06 11:52:20;;;;;;;10.38;3.97;;;;;;;;;;4951428;29;20131;-57
2023/10/06 11:54:46;;;;;;;9.80;3.45;;;;;;;;;;4934502;29;20051;-57
2023/10/06 11:57:16;;;;;;;9.10;3.85;;;;;;;;;;4935114;29;20050;-57
2023/10/06 11:59:51;;;;;;;5.97;3.33;;;28.10;99.90;;;;;;4935129;29;20106;-54
2023/10/06 12:02:19;;;;;;;13.80;6.90;;;;;;;;;;4990075;28;20050;-54
2023/10/06 12:04:45;;;;;;;9.52;4.05;;;28.30;98.10;;;;;;4994892;28;20026;-54
2023/10/06 12:07:23;;;;;;;9.60;3.70;;;;;;;;;;4995362;28;20371;-54
2023/10/06 12:09:50;;;;;;;6.13;3.70;;;28.60;92.10;;;;;;4995117;28;20037;-55
2023/10/06 12:12:17;;;;;;;7.65;4.00;;;27.70;94.50;;;;;;4995185;28;20018;-55
2023/10/06 12:14:44;;;;;;;7.85;3.40;;;27.60;92.30;;;;;;4995141;28;20038;-55
2023/10/06 12:17:14;;;;;;;9.82;5.35;;;27.90;95.10;;;;;;4976717;28;20034;-54
2023/10/06 12:19:42;;;;;;;6.00;3.60;;;27.80;96.10;;;;;;4994699;28;20113;-55
2023/10/06 12:22:10;;;;;;;9.93;3.85;;;27.80;95.20;;;;;;4994833;28;20375;-55
2023/10/06 12:24:36;;;;;;;8.48;3.65;;;27.70;95.40;;;;;;4994835;28;20026;-55
2023/10/06 12:27:02;;;;;;;6.55;3.70;;;28.00;94.20;;;;;;4994956;28;20030;-55
2023/10/06 12:29:31;;;;;;;8.00;3.47;;;28.00;93.90;;;;;;4994745;28;20521;-54
2023/10/06 12:31:57;;;;;;;6.78;4.28;;;27.10;91.10;;;;;;4994658;28;20042;-55
2023/10/06 12:34:23;;;;;;;7.03;4.03;;;26.60;91.30;;;;;;4994793;28;20085;-55
2023/10/06 12:36:51;;;;;;;14.32;4.65;;;26.70;91.40;;;;;;4976424;28;20046;-55
2023/10/06 12:39:33;;;;;;;8.88;3.83;;;27.00;91.60;;;;;;4994408;28;20088;-54
2023/10/06 12:41:59;;;;;;;8.88;3.60;;;27.30;91.70;;;;;;4994654;28;20035;-54
2023/10/06 12:44:27;;;;;;;9.70;4.07;;;27.50;91.80;;;;;;4994450;28;20030;-55
2023/10/06 12:46:56;;;;;;;16.50;10.73;;;27.80;91.00;;;;;;4994578;28;20038;-57
2023/10/06 12:49:23;;;;;;;8.55;4.78;;;27.50;91.30;;;;;;4994473;28;20027;-57
2023/10/06 12:51:50;;;;;;;13.95;8.10;;;27.30;90.50;;;;;;4994949;28;20137;-57
2023/10/06 12:54:15;;;;;;;6.78;3.90;;;27.50;91.20;;;;;;5031281;28;20056;-57
2023/10/06 12:56:46;;;;;;;7.72;3.47;;;28.20;91.10;;;;;;5033670;28;20100;-57
2023/10/06 12:59:12;;;;;;;11.63;3.72;;;28.00;91.10;;;;;;5032556;28;20652;-59
2023/10/06 13:01:38;;;;;;;10.77;4.13;;;28.00;91.00;;;;;;5033363;28;20037;-61
2023/10/06 13:04:05;;;;;;;6.57;4.03;;;28.10;90.80;;;;;;5033420;28;20029;-56
2023/10/06 13:06:31;;;;;;;6.32;4.05;;;28.30;91.30;;;;;;5033510;28;20053;-56
2023/10/06 13:09:01;;;;;;;10.82;5.95;;;27.50;90.80;;;;;;5033470;28;20021;-57
2023/10/06 13:11:30;;;;;;;7.28;4.15;;;27.40;90.80;;;;;;5033526;28;20029;-60
2023/10/06 13:13:56;;;;;;;8.13;3.85;;;27.90;91.40;;;;;;5032170;28;20112;-58
2023/10/06 13:16:23;;;;;;;8.52;4.20;;;28.00;90.70;;;;;;5032594;28;20105;-58
2023/10/06 13:18:49;;;;;;;5.97;3.85;;;27.90;90.50;;;;;;4997614;28;20049;-57
2023/10/06 13:21:16;;;;;;;7.72;4.22;;;28.30;90.10;;;;;;5032952;28;20721;-58
2023/10/06 13:23:43;;;;;;;7.03;3.97;;;28.40;89.70;;;;;;5033125;28;20056;-58
2023/10/06 13:26:12;;;;;;;9.55;3.80;;;28.40;89.50;;;;;;5033086;28;20362;-56
2023/10/06 13:28:40;;;;;;;12.18;5.25;;;28.00;90.00;;;;;;5032982;28;20029;-57
2023/10/06 13:31:07;;;;;;;9.23;4.65;;;27.30;90.00;;;;;;5033030;28;20477;-57
2023/10/06 13:33:33;;;;;;;16.25;6.82;;;27.40;90.40;;;;;;5032845;28;20052;-58
2023/10/06 13:36:00;;;;;;;9.70;3.80;;;27.00;94.40;;;;;;5032865;28;20025;-55
2023/10/06 13:38:26;;;;;;;14.60;5.00;;;27.40;90.60;;;;;;5032719;28;20488;-56
2023/10/06 13:40:53;;;;;;;8.75;3.72;;;27.70;90.20;;;;;;4997697;28;20073;-58
2023/10/06 13:43:20;;;;;;;10.75;3.70;;;27.60;90.10;;;;;;5033214;28;20364;-59
2023/10/06 13:45:46;;;;;;;6.57;3.58;;;27.40;90.20;;;;;;5032799;28;20038;-58
2023/10/06 13:48:14;;;;;;;7.35;3.30;;;;;;;;;;5032673;28;20128;-56
2023/10/06 13:50:40;;;;;;;8.10;3.88;;;27.30;99.90;;;;;;5032812;28;20040;-59
2023/10/06 13:53:08;;;;;;;13.80;4.93;;;;;;;;;;5032612;28;20045;-57
2023/10/06 13:55:35;;;;;;;5.85;3.08;;;;;;;;;;5032476;28;20070;-56
2023/10/06 13:58:04;;;;;;;6.93;3.40;;;;;;;;;;5032587;28;20108;-58
2023/10/06 14:00:37;;;;;;;11.73;4.85;;;;;;;;;;5032321;28;20045;-57
2023/10/06 14:03:05;;;;;;;7.53;3.28;;;;;;;;;;5032398;28;20049;-57
2023/10/06 14:05:32;;;;;;;6.13;3.65;;;;;;;;;;4990224;28;20034;-56
2023/10/06 14:07:59;;;;;;;9.25;3.35;;;27.40;99.80;;;;;;4990734;28;20038;-57
2023/10/06 14:10:26;;;;;;;15.52;4.60;;;;;;;;;;4990099;28;20050;-58
2023/10/06 14:13:11;;;;;;;10.43;4.15;;;;;;;;;;4988870;28;20133;-58
2023/10/06 14:15:54;;;;;;;6.93;4.38;;;;;;;;;;4987369;28;20042;-58
2023/10/06 14:18:23;;;;;;;8.70;3.95;;;;;;;;;;4989715;28;20041;-56
2023/10/06 14:20:50;;;;;;;11.88;4.43;;;;;;;;;;4990073;28;20062;-56
2023/10/06 14:23:19;;;;;;;8.40;3.55;;;;;;;;;;4990421;28;20397;-57
2023/10/06 14:25:46;;;;;;;9.10;3.92;;;;;;;;;;4957977;28;20530;-57
2023/10/06 14:28:12;;;;;;;7.47;3.40;;;;;;;;;;4990257;28;20537;-56
2023/10/06 14:30:42;;;;;;;8.35;4.07;;;;;;;;;;4990261;28;20694;-56